createdAt,value
2023-04-02T00:02:07.161Z,17.13
2023-04-02T00:04:33.486Z,17.10
2023-04-02T00:07:01.816Z,17.07
2023-04-02T00:09:28.229Z,17.03
2023-04-02T00:11:54.585Z,17.01
2023-04-02T00:14:20.955Z,16.98
2023-04-02T00:16:47.419Z,16.95
2023-04-02T00:19:14.318Z,16.91
2023-04-02T00:21:41.127Z,16.88
2023-04-02T00:24:07.440Z,16.85
2023-04-02T00:26:33.819Z,16.82
2023-04-02T00:29:00.216Z,16.79
2023-04-02T00:31:26.609Z,16.76
2023-04-02T00:33:52.960Z,16.74
2023-04-02T00:36:19.392Z,16.73
2023-04-02T00:38:46.825Z,16.70
2023-04-02T00:41:14.617Z,16.67
2023-04-02T00:43:41.054Z,16.65
2023-04-02T00:46:07.359Z,16.63
2023-04-02T00:48:33.756Z,16.60
2023-04-02T00:51:00.107Z,16.58
2023-04-02T00:53:26.464Z,16.47
2023-04-02T00:55:52.758Z,16.53
2023-04-02T00:58:19.138Z,16.50
2023-04-02T01:00:45.588Z,16.49
2023-04-02T01:03:12.143Z,16.46
2023-04-02T01:05:38.828Z,16.44
2023-04-02T01:08:05.337Z,16.41
2023-04-02T01:10:31.882Z,16.40
2023-04-02T01:12:58.216Z,16.36
2023-04-02T01:15:24.720Z,16.32
2023-04-02T01:17:51.171Z,16.29
2023-04-02T01:20:17.533Z,16.25
2023-04-02T01:22:43.841Z,16.23
2023-04-02T01:25:10.207Z,16.20
2023-04-02T01:27:36.582Z,16.17
2023-04-02T01:30:03.006Z,16.14
2023-04-02T01:32:29.513Z,16.11
2023-04-02T01:34:55.910Z,16.09
2023-04-02T01:37:22.285Z,16.06
2023-04-02T01:39:48.614Z,16.02
2023-04-02T01:42:14.916Z,16.01
2023-04-02T01:44:41.333Z,15.98
2023-04-02T01:47:10.362Z,15.95
2023-04-02T01:49:36.627Z,15.94
2023-04-02T01:52:02.864Z,15.92
2023-04-02T01:54:29.140Z,15.91
2023-04-02T01:56:55.455Z,15.88
2023-04-02T01:59:21.841Z,15.85
2023-04-02T02:01:48.367Z,15.83
2023-04-02T02:04:14.756Z,15.79
2023-04-02T02:06:41.111Z,15.78
2023-04-02T02:09:07.502Z,15.75
2023-04-02T02:11:33.915Z,15.73
2023-04-02T02:14:00.178Z,15.70
2023-04-02T02:16:26.501Z,15.67
2023-04-02T02:18:52.995Z,15.65
2023-04-02T02:21:19.365Z,15.62
2023-04-02T02:23:45.722Z,15.60
2023-04-02T02:26:12.112Z,15.58
2023-04-02T02:28:38.386Z,15.55
2023-04-02T02:31:04.661Z,15.53
2023-04-02T02:33:30.938Z,15.49
2023-04-02T02:35:57.329Z,15.48
2023-04-02T02:38:23.694Z,15.45
2023-04-02T02:40:50.088Z,15.42
2023-04-02T02:43:16.352Z,15.40
2023-04-02T02:45:42.717Z,15.38
2023-04-02T02:48:09.017Z,15.36
2023-04-02T02:50:35.389Z,15.34
2023-04-02T02:53:01.685Z,15.33
2023-04-02T02:55:28.008Z,15.30
2023-04-02T02:57:54.401Z,15.29
2023-04-02T03:00:20.849Z,15.26
2023-04-02T03:02:47.583Z,15.25
2023-04-02T03:05:14.067Z,15.23
2023-04-02T03:07:40.376Z,15.20
2023-04-02T03:10:06.720Z,15.18
2023-04-02T03:12:33.024Z,15.17
2023-04-02T03:14:59.278Z,15.15
2023-04-02T03:17:25.539Z,15.12
2023-04-02T03:19:51.811Z,15.11
2023-04-02T03:22:18.430Z,15.07
2023-04-02T03:24:44.893Z,15.06
2023-04-02T03:27:11.253Z,15.03
2023-04-02T03:29:37.646Z,15.00
2023-04-02T03:32:03.988Z,14.97
2023-04-02T03:34:30.381Z,14.95
2023-04-02T03:36:56.649Z,14.92
2023-04-02T03:39:25.041Z,14.90
2023-04-02T03:41:51.438Z,14.87
2023-04-02T03:44:17.744Z,14.85
2023-04-02T03:46:44.073Z,14.82
2023-04-02T03:49:12.619Z,14.81
2023-04-02T03:51:38.940Z,14.80
2023-04-02T03:54:05.320Z,14.77
2023-04-02T03:56:31.707Z,14.76
2023-04-02T03:58:57.979Z,14.74
2023-04-02T04:01:24.277Z,14.71
2023-04-02T04:03:50.690Z,14.69
2023-04-02T04:06:17.388Z,14.67
2023-04-02T04:08:44.271Z,14.65
2023-04-02T04:11:10.731Z,14.63
2023-04-02T04:13:37.309Z,14.61
2023-04-02T04:16:03.554Z,14.59
2023-04-02T04:18:29.841Z,14.58
2023-04-02T04:20:56.118Z,14.55
2023-04-02T04:23:22.416Z,14.53
2023-04-02T04:25:48.687Z,14.51
2023-04-02T04:28:15.041Z,14.41
2023-04-02T04:30:41.301Z,14.47
2023-04-02T04:33:09.891Z,14.45
2023-04-02T04:35:36.373Z,14.44
2023-04-02T04:38:02.785Z,14.42
2023-04-02T04:40:29.329Z,14.40
2023-04-02T04:42:55.683Z,14.38
2023-04-02T04:45:22.037Z,14.35
2023-04-02T04:47:48.329Z,14.34
2023-04-02T04:50:14.655Z,14.32
2023-04-02T04:52:43.851Z,14.31
2023-04-02T04:55:10.147Z,14.30
2023-04-02T04:57:36.423Z,14.27
2023-04-02T05:00:02.888Z,14.25
2023-04-02T05:02:29.423Z,14.24
2023-04-02T05:04:55.972Z,14.22
2023-04-02T05:07:22.708Z,14.19
2023-04-02T05:09:48.967Z,14.17
2023-04-02T05:12:15.472Z,14.15
2023-04-02T05:14:41.860Z,14.13
2023-04-02T05:17:08.171Z,14.11
2023-04-02T05:19:34.453Z,14.09
2023-04-02T05:22:00.799Z,14.07
2023-04-02T05:24:27.092Z,14.06
2023-04-02T05:26:53.443Z,14.02
2023-04-02T05:29:19.886Z,14.00
2023-04-02T05:31:46.211Z,13.98
2023-04-02T05:34:13.147Z,13.97
2023-04-02T05:36:39.520Z,13.95
2023-04-02T05:39:05.849Z,13.92
2023-04-02T05:41:32.229Z,13.91
2023-04-02T05:43:58.606Z,13.88
2023-04-02T05:46:25.137Z,13.86
2023-04-02T05:48:51.548Z,13.85
2023-04-02T05:51:17.837Z,13.83
2023-04-02T05:53:44.131Z,13.82
2023-04-02T05:56:10.490Z,13.80
2023-04-02T05:58:38.005Z,13.78
2023-04-02T06:01:04.512Z,13.77
2023-04-02T06:03:31.077Z,13.75
2023-04-02T06:05:57.406Z,13.73
2023-04-02T06:08:23.756Z,13.71
2023-04-02T06:10:50.155Z,13.71
2023-04-02T06:13:16.580Z,13.70
2023-04-02T06:15:42.888Z,13.69
2023-04-02T06:18:09.312Z,13.68
2023-04-02T06:20:35.649Z,13.66
2023-04-02T06:23:02.003Z,13.66
2023-04-02T06:25:28.308Z,13.68
2023-04-02T06:27:54.656Z,13.85
2023-04-02T06:30:20.928Z,14.20
2023-04-02T06:32:47.324Z,14.57
2023-04-02T06:35:13.614Z,14.89
2023-04-02T06:37:39.910Z,15.14
2023-04-02T06:40:09.321Z,15.35
2023-04-02T06:42:35.622Z,15.50
2023-04-02T06:45:01.868Z,15.65
2023-04-02T06:47:43.945Z,15.76
2023-04-02T06:50:10.466Z,15.89
2023-04-02T06:52:36.814Z,15.99
2023-04-02T06:55:03.115Z,16.06
2023-04-02T06:57:29.460Z,16.13
2023-04-02T06:59:55.782Z,16.20
2023-04-02T07:02:22.077Z,16.25
2023-04-02T07:04:48.528Z,16.30
2023-04-02T07:07:14.836Z,16.34
2023-04-02T07:09:41.118Z,16.38
2023-04-02T07:12:07.441Z,16.42
2023-04-02T07:14:33.673Z,16.46
2023-04-02T07:17:00.015Z,16.48
2023-04-02T07:19:26.330Z,16.52
2023-04-02T07:21:52.650Z,16.56
2023-04-02T07:24:18.949Z,16.60
2023-04-02T07:26:45.300Z,16.66
2023-04-02T07:29:11.585Z,16.69
2023-04-02T07:31:37.879Z,16.71
2023-04-02T07:34:04.157Z,16.76
2023-04-02T07:36:30.417Z,16.78
2023-04-02T07:38:56.714Z,16.79
2023-04-02T07:41:23.327Z,16.81
2023-04-02T07:43:49.593Z,16.83
2023-04-02T07:46:15.981Z,16.85
2023-04-02T07:48:42.461Z,16.89
2023-04-02T07:51:08.794Z,16.91
2023-04-02T07:53:35.118Z,16.91
2023-04-02T07:56:01.428Z,16.94
2023-04-02T07:58:27.688Z,16.94
2023-04-02T08:00:54.010Z,16.98
2023-04-02T08:03:20.591Z,17.00
2023-04-02T08:05:46.923Z,17.02
2023-04-02T08:08:16.552Z,17.02
2023-04-02T08:10:42.858Z,17.03
2023-04-02T08:13:12.300Z,17.05
2023-04-02T08:15:38.608Z,17.06
2023-04-02T08:18:04.925Z,17.06
2023-04-02T08:20:31.284Z,17.07
2023-04-02T08:22:57.743Z,17.07
2023-04-02T08:25:24.037Z,17.08
2023-04-02T08:27:51.256Z,17.10
2023-04-02T08:30:17.548Z,17.10
2023-04-02T08:32:43.936Z,17.12
2023-04-02T08:35:10.372Z,17.15
2023-04-02T08:37:36.877Z,17.14
2023-04-02T08:40:03.229Z,17.16
2023-04-02T08:42:29.489Z,17.17
2023-04-02T08:44:55.714Z,17.20
2023-04-02T08:47:22.117Z,17.22
2023-04-02T08:49:48.459Z,17.23
2023-04-02T08:52:14.683Z,17.22
2023-04-02T08:54:41.053Z,17.22
2023-04-02T08:57:07.332Z,17.22
2023-04-02T08:59:36.485Z,17.21
2023-04-02T09:02:02.877Z,17.21
2023-04-02T09:04:29.206Z,17.22
2023-04-02T09:06:55.503Z,17.22
2023-04-02T09:09:22.008Z,17.22
2023-04-02T09:11:48.345Z,17.20
2023-04-02T09:14:15.682Z,17.20
2023-04-02T09:16:42.011Z,17.19
2023-04-02T09:19:08.434Z,17.21
2023-04-02T09:21:34.982Z,17.23
2023-04-02T09:24:02.765Z,17.23
2023-04-02T09:26:30.461Z,17.23
2023-04-02T09:28:56.816Z,17.25
2023-04-02T09:31:23.209Z,17.27
2023-04-02T09:33:49.563Z,17.29
2023-04-02T09:36:16.196Z,17.29
2023-04-02T09:38:42.551Z,17.31
2023-04-02T09:41:08.985Z,17.32
2023-04-02T09:43:35.413Z,17.33
2023-04-02T09:46:01.775Z,17.36
2023-04-02T09:48:28.099Z,17.36
2023-04-02T09:50:54.775Z,17.38
2023-04-02T09:53:21.067Z,17.38
2023-04-02T09:55:47.389Z,17.38
2023-04-02T09:58:13.704Z,17.39
2023-04-02T10:00:42.082Z,17.39
2023-04-02T10:03:08.641Z,17.38
2023-04-02T10:08:04.729Z,17.38
2023-04-02T10:10:31.044Z,17.37
2023-04-02T10:12:57.389Z,17.38
2023-04-02T10:15:23.758Z,17.37
2023-04-02T10:17:50.111Z,17.37
2023-04-02T10:20:16.550Z,17.37
2023-04-02T10:22:42.915Z,17.36
2023-04-02T10:25:09.253Z,17.34
2023-04-02T10:27:35.561Z,17.34
2023-04-02T10:30:02.082Z,17.33
2023-04-02T10:32:28.603Z,17.33
2023-04-02T10:34:55.204Z,17.35
2023-04-02T10:37:22.302Z,17.37
2023-04-02T10:39:48.644Z,17.37
2023-04-02T10:42:14.988Z,17.38
2023-04-02T10:44:41.391Z,17.39
2023-04-02T10:47:07.823Z,17.39
2023-04-02T10:49:34.673Z,17.41
2023-04-02T10:52:01.069Z,17.43
2023-04-02T10:54:27.469Z,17.45
2023-04-02T10:56:53.834Z,17.45
2023-04-02T10:59:20.265Z,17.47
2023-04-02T11:01:46.777Z,17.49
2023-04-02T11:04:14.187Z,17.50
2023-04-02T11:06:40.698Z,17.53
2023-04-02T11:09:07.019Z,17.54
2023-04-02T11:11:33.571Z,17.55
2023-04-02T11:13:59.893Z,17.58
2023-04-02T11:16:26.334Z,17.62
2023-04-02T11:18:52.620Z,17.62
2023-04-02T11:21:19.033Z,17.66
2023-04-02T11:23:45.398Z,17.69
2023-04-02T11:26:11.885Z,17.71
2023-04-02T11:28:38.190Z,17.73
2023-04-02T11:31:04.656Z,17.73
2023-04-02T11:33:37.697Z,17.77
2023-04-02T11:36:06.477Z,17.82
2023-04-02T11:38:32.855Z,17.85
2023-04-02T11:40:59.236Z,17.86
2023-04-02T11:43:25.583Z,17.85
2023-04-02T11:45:53.397Z,17.85
2023-04-02T11:48:19.999Z,17.87
2023-04-02T11:50:46.614Z,17.87
2023-04-02T11:53:13.049Z,17.89
2023-04-02T11:55:39.605Z,17.88
2023-04-02T11:58:06.044Z,17.87
2023-04-02T12:00:32.314Z,17.87
2023-04-02T12:03:01.991Z,17.88
2023-04-02T12:05:28.378Z,17.87
2023-04-02T12:07:55.287Z,17.88
2023-04-02T12:10:22.750Z,17.90
2023-04-02T12:12:49.107Z,17.93
2023-04-02T12:15:15.706Z,17.94
2023-04-02T12:17:42.090Z,17.95
2023-04-02T12:20:08.466Z,17.94
2023-04-02T12:22:34.794Z,17.94
2023-04-02T12:25:01.277Z,17.94
2023-04-02T12:27:27.871Z,17.95
2023-04-02T12:29:54.389Z,17.95
2023-04-02T12:32:20.928Z,17.97
2023-04-02T12:34:47.288Z,18.00
2023-04-02T12:37:13.574Z,18.03
2023-04-02T12:39:39.953Z,18.04
2023-04-02T12:42:06.554Z,18.04
2023-04-02T12:44:32.827Z,18.06
2023-04-02T12:46:59.111Z,18.06
2023-04-02T12:49:25.480Z,18.06
2023-04-02T12:51:51.799Z,18.07
2023-04-02T12:54:18.137Z,18.10
2023-04-02T12:56:44.518Z,18.10
2023-04-02T12:59:11.427Z,18.10
2023-04-02T13:01:37.794Z,18.11
2023-04-02T13:04:04.296Z,18.10
2023-04-02T13:06:31.844Z,18.10
2023-04-02T13:08:58.189Z,18.10
2023-04-02T13:11:24.501Z,18.12
2023-04-02T13:13:50.795Z,18.12
2023-04-02T13:16:17.334Z,18.13
2023-04-02T13:18:43.813Z,18.14
2023-04-02T13:21:10.412Z,18.14
2023-04-02T13:23:37.021Z,18.15
2023-04-02T13:26:03.482Z,18.18
2023-04-02T13:28:30.055Z,18.18
2023-04-02T13:30:56.401Z,18.20
2023-04-02T13:33:22.865Z,18.21
2023-04-02T13:35:49.273Z,18.21
2023-04-02T13:38:15.672Z,18.22
2023-04-02T13:40:42.200Z,18.23
2023-04-02T13:43:08.688Z,18.24
2023-04-02T13:45:35.371Z,18.24
2023-04-02T13:48:01.869Z,18.26
2023-04-02T13:50:28.430Z,18.28
2023-04-02T13:52:54.886Z,18.29
2023-04-02T13:55:21.552Z,18.28
2023-04-02T13:57:48.022Z,18.27
2023-04-02T14:00:14.458Z,18.27
2023-04-02T14:02:40.941Z,18.27
2023-04-02T14:05:07.347Z,18.26
2023-04-02T14:07:33.692Z,18.28
2023-04-02T14:10:04.451Z,18.28
2023-04-02T14:12:30.926Z,18.26
2023-04-02T14:14:57.897Z,18.25
2023-04-02T14:17:24.346Z,18.26
2023-04-02T14:19:50.737Z,18.23
2023-04-02T14:22:17.167Z,18.22
2023-04-02T14:24:43.550Z,18.22
2023-04-02T14:27:09.856Z,18.23
2023-04-02T14:29:36.196Z,18.23
2023-04-02T14:32:02.510Z,18.23
2023-04-02T14:34:28.849Z,18.24
2023-04-02T14:36:55.179Z,18.23
2023-04-02T14:39:21.603Z,18.24
2023-04-02T14:41:47.879Z,18.25
2023-04-02T14:44:14.178Z,18.25
2023-04-02T14:46:40.559Z,18.24
2023-04-02T14:49:07.023Z,18.25
2023-04-02T14:51:33.416Z,18.25
2023-04-02T14:53:59.715Z,18.23
2023-04-02T14:56:26.689Z,18.22
2023-04-02T14:58:53.085Z,18.22
2023-04-02T15:01:19.464Z,18.22
2023-04-02T15:03:46.009Z,18.21
2023-04-02T15:06:12.365Z,18.22
2023-04-02T15:08:38.673Z,18.24
2023-04-02T15:11:07.897Z,18.28
2023-04-02T15:13:34.984Z,18.30
2023-04-02T15:16:01.358Z,18.34
2023-04-02T15:18:27.733Z,18.39
2023-04-02T15:20:54.005Z,18.43
2023-04-02T15:23:20.594Z,18.48
2023-04-02T15:25:46.883Z,18.53
2023-04-02T15:28:14.032Z,18.60
2023-04-02T15:30:41.630Z,18.64
2023-04-02T15:33:07.909Z,18.65
2023-04-02T15:35:34.235Z,18.68
2023-04-02T15:38:00.583Z,18.71
2023-04-02T15:40:27.134Z,18.74
2023-04-02T15:42:54.039Z,18.76
2023-04-02T15:45:20.510Z,18.79
2023-04-02T15:47:46.812Z,18.80
2023-04-02T15:50:13.272Z,18.81
2023-04-02T15:52:39.545Z,18.81
2023-04-02T15:55:05.865Z,18.82
2023-04-02T15:57:32.302Z,18.83
2023-04-02T15:59:58.779Z,18.82
2023-04-02T16:02:25.108Z,18.82
2023-04-02T16:04:51.486Z,18.83
2023-04-02T16:07:17.752Z,18.83
2023-04-02T16:09:44.125Z,18.83
2023-04-02T16:12:10.398Z,18.81
2023-04-02T16:14:36.645Z,18.80
2023-04-02T16:17:10.824Z,18.78
2023-04-02T16:19:44.262Z,18.69
2023-04-02T16:22:10.655Z,18.75
2023-04-02T16:24:36.923Z,18.72
2023-04-02T16:27:03.183Z,18.72
2023-04-02T16:29:30.818Z,18.69
2023-04-02T16:31:59.848Z,18.66
2023-04-02T16:34:26.360Z,18.64
2023-04-02T16:36:52.806Z,18.62
2023-04-02T16:39:19.218Z,18.59
2023-04-02T16:41:45.524Z,18.57
2023-04-02T16:44:11.811Z,18.56
2023-04-02T16:46:40.352Z,18.47
2023-04-02T16:49:07.209Z,18.51
2023-04-02T16:51:33.458Z,18.50
2023-04-02T16:54:02.042Z,18.48
2023-04-02T16:56:29.486Z,18.46
2023-04-02T16:58:56.069Z,18.43
2023-04-02T17:01:22.422Z,18.41
2023-04-02T17:03:49.063Z,18.40
2023-04-02T17:06:17.809Z,18.38
2023-04-02T17:08:44.841Z,18.35
2023-04-02T17:11:12.071Z,18.33
2023-04-02T17:13:38.553Z,18.33
2023-04-02T17:16:04.938Z,18.32
2023-04-02T17:18:31.355Z,18.31
2023-04-02T17:20:57.967Z,18.33
2023-04-02T17:23:24.325Z,18.35
2023-04-02T17:25:52.189Z,18.36
2023-04-02T17:28:18.498Z,18.36
2023-04-02T17:30:44.825Z,18.37
2023-04-02T17:33:11.151Z,18.39
2023-04-02T17:35:37.523Z,18.41
2023-04-02T17:38:03.835Z,18.41
2023-04-02T17:40:30.186Z,18.43
2023-04-02T17:42:56.524Z,18.44
2023-04-02T17:45:22.890Z,18.44
2023-04-02T17:47:49.371Z,18.46
2023-04-02T17:50:15.821Z,18.45
2023-04-02T17:52:42.151Z,18.45
2023-04-02T17:55:08.527Z,18.45
2023-04-02T17:57:34.958Z,18.44
2023-04-02T18:00:01.383Z,18.43
2023-04-02T18:02:27.852Z,18.42
2023-04-02T18:04:54.244Z,18.42
2023-04-02T18:07:20.633Z,18.41
2023-04-02T18:09:46.984Z,18.40
2023-04-02T18:12:13.428Z,18.40
2023-04-02T18:14:39.734Z,18.40
2023-04-02T18:17:06.124Z,18.40
2023-04-02T18:19:34.443Z,18.40
2023-04-02T18:22:01.053Z,18.40
2023-04-02T18:24:27.507Z,18.40
2023-04-02T18:26:53.843Z,18.39
2023-04-02T18:29:21.433Z,18.40
2023-04-02T18:31:47.709Z,18.39
2023-04-02T18:34:14.297Z,18.38
2023-04-02T18:36:40.639Z,18.36
2023-04-02T18:39:09.957Z,18.37
2023-04-02T18:41:36.205Z,18.36
2023-04-02T18:44:02.499Z,18.35
2023-04-02T18:46:29.051Z,18.35
2023-04-02T18:48:55.482Z,18.35
2023-04-02T18:51:21.759Z,18.34
2023-04-02T18:53:48.009Z,18.34
2023-04-02T18:56:14.278Z,18.33
2023-04-02T18:58:40.754Z,18.32
2023-04-02T19:01:07.117Z,18.32
2023-04-02T19:03:33.515Z,18.32
2023-04-02T19:06:00.132Z,18.31
2023-04-02T19:08:26.707Z,18.29
2023-04-02T19:10:53.042Z,18.27
2023-04-02T19:13:19.472Z,18.27
2023-04-02T19:15:45.934Z,18.27
2023-04-02T19:18:12.245Z,18.29
2023-04-02T19:20:38.703Z,18.29
2023-04-02T19:23:05.263Z,18.31
2023-04-02T19:25:31.576Z,18.33
2023-04-02T19:28:01.175Z,18.33
2023-04-02T19:30:27.510Z,18.35
2023-04-02T19:32:54.027Z,18.36
2023-04-02T19:35:20.414Z,18.37
2023-04-02T19:37:46.786Z,18.38
2023-04-02T19:40:13.115Z,18.38
2023-04-02T19:42:39.439Z,18.38
2023-04-02T19:45:05.818Z,18.36
2023-04-02T19:47:32.400Z,18.37
2023-04-02T19:49:58.853Z,18.36
2023-04-02T19:52:25.197Z,18.36
2023-04-02T19:54:51.490Z,18.35
2023-04-02T19:57:17.908Z,18.36
2023-04-02T19:59:44.258Z,18.35
2023-04-02T20:02:10.603Z,18.36
2023-04-02T20:04:37.358Z,18.35
2023-04-02T20:07:03.747Z,18.35
2023-04-02T20:09:35.400Z,18.35
2023-04-02T20:12:01.740Z,18.35
2023-04-02T20:14:28.287Z,18.36
2023-04-02T20:16:54.611Z,18.35
2023-04-02T20:19:21.022Z,18.35
2023-04-02T20:21:47.440Z,18.35
2023-04-02T20:24:13.724Z,18.35
2023-04-02T20:26:40.108Z,18.34
2023-04-02T20:29:06.540Z,18.34
2023-04-02T20:31:33.174Z,18.33
2023-04-02T20:33:59.750Z,18.31
2023-04-02T20:36:26.267Z,18.31
2023-04-02T20:38:52.684Z,18.30
2023-04-02T20:41:19.076Z,18.28
2023-04-02T20:43:45.588Z,18.27
2023-04-02T20:46:12.329Z,18.26
2023-04-02T20:48:38.918Z,18.25
2023-04-02T20:51:05.270Z,18.23
2023-04-02T20:53:31.759Z,18.21
2023-04-02T20:55:58.137Z,18.20
2023-04-02T20:58:24.850Z,18.18
2023-04-02T21:00:51.151Z,18.18
2023-04-02T21:03:17.550Z,18.16
2023-04-02T21:05:43.975Z,18.14
2023-04-02T21:08:10.426Z,18.13
2023-04-02T21:10:37.002Z,18.11
2023-04-02T21:13:03.772Z,18.10
2023-04-02T21:15:30.284Z,18.07
2023-04-02T21:17:56.673Z,18.06
2023-04-02T21:20:23.001Z,18.04
2023-04-02T21:22:49.380Z,18.03
2023-04-02T21:25:15.662Z,18.02
2023-04-02T21:27:42.001Z,18.00
2023-04-02T21:30:08.264Z,17.98
2023-04-02T21:32:34.914Z,17.97
2023-04-02T21:35:01.475Z,17.96
2023-04-02T21:37:27.992Z,17.93
2023-04-02T21:39:54.362Z,17.92
2023-04-02T21:42:20.724Z,17.89
2023-04-02T21:44:53.214Z,17.89
2023-04-02T21:47:19.650Z,17.87
2023-04-02T21:49:45.974Z,17.85
2023-04-02T21:52:12.276Z,17.85
2023-04-02T21:54:38.555Z,17.83
2023-04-02T21:57:04.864Z,17.81
2023-04-02T21:59:31.148Z,17.77
2023-04-02T22:01:57.585Z,17.68
2023-04-02T22:04:23.965Z,17.54
2023-04-02T22:06:50.763Z,17.40
2023-04-02T22:09:17.236Z,17.27
2023-04-02T22:11:43.603Z,17.15
2023-04-02T22:14:10.032Z,17.05
2023-04-02T22:16:36.574Z,16.94
2023-04-02T22:19:02.987Z,16.85
2023-04-02T22:21:29.382Z,16.76
2023-04-02T22:23:55.771Z,16.67
2023-04-02T22:26:22.388Z,16.60
2023-04-02T22:28:48.707Z,16.51
2023-04-02T22:31:15.074Z,16.44
2023-04-02T22:33:41.487Z,16.37
2023-04-02T22:36:11.034Z,16.30
2023-04-02T22:38:37.434Z,16.21
2023-04-02T22:41:03.752Z,16.16
2023-04-02T22:43:30.043Z,16.09
2023-04-02T22:45:56.301Z,16.03
2023-04-02T22:48:22.730Z,15.97
2023-04-02T22:50:49.024Z,15.91
2023-04-02T22:53:18.134Z,15.86
2023-04-02T22:55:44.567Z,15.79
2023-04-02T22:58:10.955Z,15.74
2023-04-02T23:00:37.639Z,15.68
2023-04-02T23:03:04.530Z,15.63
2023-04-02T23:05:30.876Z,15.57
2023-04-02T23:07:57.292Z,15.52
2023-04-02T23:10:23.923Z,15.45
2023-04-02T23:12:55.518Z,15.41
2023-04-02T23:15:21.900Z,15.36
2023-04-02T23:17:48.274Z,15.31
2023-04-02T23:20:14.880Z,15.25
2023-04-02T23:22:41.210Z,15.21
2023-04-02T23:25:07.498Z,15.16
2023-04-02T23:27:33.865Z,15.11
2023-04-02T23:30:00.184Z,15.07
2023-04-02T23:32:26.547Z,15.07
2023-04-02T23:34:52.875Z,15.18
2023-04-02T23:37:19.195Z,15.20
2023-04-02T23:39:45.620Z,15.16
2023-04-02T23:42:12.173Z,15.08
2023-04-02T23:44:38.500Z,15.00
2023-04-02T23:47:04.880Z,14.94
2023-04-02T23:49:31.312Z,14.89
2023-04-02T23:51:57.658Z,14.82
2023-04-02T23:54:23.974Z,14.77
2023-04-02T23:56:50.412Z,14.70
2023-04-02T23:59:17.020Z,14.65
